createdAt,value
2022-09-14T00:01:29.049Z,100.00
2022-09-14T00:03:58.869Z,100.00
2022-09-14T00:06:27.553Z,100.00
2022-09-14T00:08:58.220Z,100.00
2022-09-14T00:11:29.540Z,100.00
2022-09-14T00:13:59.514Z,100.00
2022-09-14T00:16:29.223Z,100.00
2022-09-14T00:19:00.457Z,100.00
2022-09-14T00:21:30.129Z,100.00
2022-09-14T00:23:59.018Z,100.00
2022-09-14T00:26:28.410Z,100.00
2022-09-14T00:28:58.083Z,100.00
2022-09-14T00:31:27.166Z,100.00
2022-09-14T00:33:55.336Z,100.00
2022-09-14T00:36:25.379Z,100.00
2022-09-14T00:38:55.190Z,100.00
2022-09-14T00:41:25.286Z,100.00
2022-09-14T00:43:57.412Z,100.00
2022-09-14T00:46:26.753Z,100.00
2022-09-14T00:48:55.050Z,100.00
2022-09-14T00:51:24.036Z,100.00
2022-09-14T00:53:52.309Z,100.00
2022-09-14T00:56:20.576Z,100.00
2022-09-14T00:58:52.397Z,100.00
2022-09-14T01:01:22.178Z,100.00
2022-09-14T01:03:50.207Z,100.00
2022-09-14T01:06:25.071Z,100.00
2022-09-14T01:09:12.198Z,100.00
2022-09-14T01:12:11.252Z,100.00
2022-09-14T01:14:46.178Z,100.00
2022-09-14T01:17:24.225Z,100.00
2022-09-14T01:20:11.086Z,100.00
2022-09-14T01:22:48.189Z,100.00
2022-09-14T01:25:35.651Z,100.00
2022-09-14T01:28:12.018Z,100.00
2022-09-14T01:30:43.262Z,100.00
2022-09-14T01:33:16.313Z,100.00
2022-09-14T01:35:47.997Z,100.00
2022-09-14T01:38:21.872Z,100.00
2022-09-14T01:40:52.438Z,100.00
2022-09-14T01:43:26.884Z,100.00
2022-09-14T01:46:00.992Z,100.00
2022-09-14T01:48:34.259Z,100.00
2022-09-14T01:51:07.057Z,100.00
2022-09-14T01:53:39.917Z,100.00
2022-09-14T01:56:12.155Z,100.00
2022-09-14T01:58:47.156Z,100.00
2022-09-14T02:01:18.401Z,100.00
2022-09-14T02:03:49.870Z,100.00
2022-09-14T02:06:24.012Z,100.00
2022-09-14T02:08:53.410Z,100.00
2022-09-14T02:11:21.335Z,100.00
2022-09-14T02:13:50.590Z,100.00
2022-09-14T02:16:19.107Z,100.00
2022-09-14T02:18:46.989Z,100.00
2022-09-14T02:21:18.554Z,100.00
2022-09-14T02:23:48.192Z,100.00
2022-09-14T02:26:17.668Z,100.00
2022-09-14T02:28:45.492Z,100.00
2022-09-14T02:31:25.014Z,100.00
2022-09-14T02:34:02.107Z,100.00
2022-09-14T02:36:42.876Z,100.00
2022-09-14T02:39:23.385Z,100.00
2022-09-14T02:41:55.497Z,100.00
2022-09-14T02:44:32.165Z,100.00
2022-09-14T02:47:06.867Z,100.00
2022-09-14T02:49:45.538Z,100.00
2022-09-14T02:52:17.451Z,100.00
2022-09-14T02:54:51.408Z,100.00
2022-09-14T02:57:19.732Z,100.00
2022-09-14T02:59:47.678Z,100.00
2022-09-14T03:02:17.034Z,100.00
2022-09-14T03:04:45.342Z,100.00
2022-09-14T03:07:13.301Z,100.00
2022-09-14T03:09:41.335Z,100.00
2022-09-14T03:12:09.588Z,100.00
2022-09-14T03:14:37.489Z,100.00
2022-09-14T03:17:05.456Z,100.00
2022-09-14T03:19:35.035Z,100.00
2022-09-14T03:22:02.847Z,100.00
2022-09-14T03:24:30.966Z,100.00
2022-09-14T03:26:58.970Z,100.00
2022-09-14T03:29:28.174Z,100.00
2022-09-14T03:31:56.045Z,100.00
2022-09-14T03:34:24.302Z,100.00
2022-09-14T03:36:53.518Z,100.00
2022-09-14T03:39:21.754Z,100.00
2022-09-14T03:41:49.973Z,100.00
2022-09-14T03:44:17.877Z,100.00
2022-09-14T03:46:46.158Z,100.00
2022-09-14T03:49:14.371Z,100.00
2022-09-14T03:51:42.368Z,100.00
2022-09-14T03:54:11.564Z,100.00
2022-09-14T03:56:39.644Z,100.00
2022-09-14T03:59:09.547Z,100.00
2022-09-14T04:01:38.306Z,100.00
2022-09-14T04:04:06.573Z,100.00
2022-09-14T04:06:34.578Z,100.00
2022-09-14T04:09:02.537Z,100.00
2022-09-14T04:11:34.045Z,100.00
2022-09-14T04:14:02.829Z,100.00
2022-09-14T04:16:31.094Z,100.00
2022-09-14T04:18:59.091Z,100.00
2022-09-14T04:21:27.104Z,100.00
2022-09-14T04:24:13.896Z,100.00
2022-09-14T04:26:44.352Z,100.00
2022-09-14T04:29:14.480Z,100.00
2022-09-14T04:31:42.505Z,100.00
2022-09-14T04:34:13.017Z,100.00
2022-09-14T04:36:40.989Z,100.00
2022-09-14T04:39:11.008Z,100.00
2022-09-14T04:41:39.016Z,100.00
2022-09-14T04:44:08.340Z,100.00
2022-09-14T04:46:36.801Z,100.00
2022-09-14T04:49:04.852Z,100.00
2022-09-14T04:51:34.010Z,100.00
2022-09-14T04:54:05.508Z,100.00
2022-09-14T04:56:37.546Z,100.00
2022-09-14T04:59:06.504Z,100.00
2022-09-14T05:01:37.953Z,100.00
2022-09-14T05:04:07.148Z,100.00
2022-09-14T05:06:36.831Z,100.00
2022-09-14T05:09:06.813Z,100.00
2022-09-14T05:11:37.734Z,100.00
2022-09-14T05:14:06.577Z,100.00
2022-09-14T05:16:38.429Z,100.00
2022-09-14T05:19:08.301Z,100.00
2022-09-14T05:21:37.860Z,100.00
2022-09-14T05:24:09.008Z,100.00
2022-09-14T05:26:36.878Z,100.00
2022-09-14T05:29:05.020Z,100.00
2022-09-14T05:31:35.045Z,100.00
2022-09-14T05:34:02.916Z,100.00
2022-09-14T05:36:30.917Z,100.00
2022-09-14T05:38:59.129Z,100.00
2022-09-14T05:41:26.935Z,100.00
2022-09-14T05:43:54.759Z,100.00
2022-09-14T05:46:23.160Z,100.00
2022-09-14T05:48:52.500Z,100.00
2022-09-14T05:51:22.797Z,100.00
2022-09-14T05:53:51.831Z,100.00
2022-09-14T05:56:21.244Z,100.00
2022-09-14T05:58:49.365Z,100.00
2022-09-14T06:01:19.560Z,100.00
2022-09-14T06:03:48.902Z,100.00
2022-09-14T06:06:19.972Z,100.00
2022-09-14T06:08:52.616Z,100.00
2022-09-14T06:11:24.470Z,100.00
2022-09-14T06:13:53.146Z,100.00
2022-09-14T06:16:23.756Z,100.00
2022-09-14T06:18:51.790Z,100.00
2022-09-14T06:21:22.314Z,100.00
2022-09-14T06:23:52.111Z,100.00
2022-09-14T06:26:20.814Z,100.00
2022-09-14T06:28:48.871Z,100.00
2022-09-14T06:31:18.040Z,100.00
2022-09-14T06:33:46.758Z,100.00
2022-09-14T06:36:17.969Z,100.00
2022-09-14T06:38:49.070Z,100.00
2022-09-14T06:41:20.122Z,100.00
2022-09-14T06:43:48.851Z,100.00
2022-09-14T06:46:20.065Z,100.00
2022-09-14T06:48:50.327Z,100.00
2022-09-14T06:51:20.266Z,100.00
2022-09-14T06:53:50.825Z,100.00
2022-09-14T06:56:19.773Z,100.00
2022-09-14T06:58:47.712Z,100.00
2022-09-14T07:01:17.296Z,100.00
2022-09-14T07:03:46.996Z,100.00
2022-09-14T07:06:17.880Z,100.00
2022-09-14T07:08:45.933Z,100.00
2022-09-14T07:11:17.231Z,100.00
2022-09-14T07:13:46.570Z,100.00
2022-09-14T07:16:15.051Z,100.00
2022-09-14T07:18:43.412Z,100.00
2022-09-14T07:21:13.704Z,100.00
2022-09-14T07:23:43.705Z,100.00
2022-09-14T07:26:13.523Z,100.00
2022-09-14T07:28:45.205Z,100.00
2022-09-14T07:31:18.851Z,100.00
2022-09-14T07:33:47.573Z,100.00
2022-09-14T07:36:16.260Z,100.00
2022-09-14T07:38:52.854Z,100.00
2022-09-14T07:41:21.654Z,100.00
2022-09-14T07:43:52.008Z,100.00
2022-09-14T07:46:20.670Z,100.00
2022-09-14T07:48:50.214Z,100.00
2022-09-14T07:51:18.227Z,99.99
2022-09-14T07:53:46.353Z,99.12
2022-09-14T07:56:16.790Z,97.93
2022-09-14T07:58:45.675Z,97.60
2022-09-14T08:01:18.019Z,97.61
2022-09-14T08:03:49.005Z,97.10
2022-09-14T08:06:19.330Z,96.89
2022-09-14T08:08:49.174Z,97.32
2022-09-14T08:11:19.512Z,97.20
2022-09-14T08:13:50.785Z,96.49
2022-09-14T08:16:21.112Z,95.91
2022-09-14T08:18:49.873Z,95.79
2022-09-14T08:21:18.944Z,96.17
2022-09-14T08:23:47.090Z,95.98
2022-09-14T08:26:16.253Z,95.67
2022-09-14T08:28:44.784Z,98.33
2022-09-14T08:31:14.958Z,98.75
2022-09-14T08:33:46.660Z,96.35
2022-09-14T08:36:16.534Z,95.51
2022-09-14T08:38:44.833Z,95.40
2022-09-14T08:41:26.008Z,93.73
2022-09-14T08:43:54.498Z,93.53
2022-09-14T08:46:31.226Z,91.43
2022-09-14T08:49:02.392Z,91.66
2022-09-14T08:51:30.972Z,91.69
2022-09-14T08:54:00.641Z,91.52
2022-09-14T08:56:33.830Z,92.10
2022-09-14T08:59:21.913Z,92.87
2022-09-14T09:01:59.089Z,94.15
2022-09-14T09:04:51.126Z,94.75
2022-09-14T09:07:27.043Z,95.01
2022-09-14T09:09:58.205Z,91.89
2022-09-14T09:12:36.034Z,89.04
2022-09-14T09:15:16.149Z,87.07
2022-09-14T09:17:47.359Z,84.47
2022-09-14T09:20:22.933Z,83.78
2022-09-14T09:22:56.320Z,83.64
2022-09-14T09:25:29.510Z,79.19
2022-09-14T09:28:01.822Z,80.59
2022-09-14T09:30:30.769Z,80.30
2022-09-14T09:32:58.877Z,78.93
2022-09-14T09:35:28.911Z,78.14
2022-09-14T09:37:56.880Z,76.82
2022-09-14T09:40:32.448Z,77.67
2022-09-14T09:43:11.989Z,77.79
2022-09-14T09:45:56.555Z,75.39
2022-09-14T09:48:28.472Z,76.79
2022-09-14T09:51:04.515Z,77.67
2022-09-14T09:53:33.973Z,78.08
2022-09-14T09:56:02.762Z,77.95
2022-09-14T09:58:36.825Z,78.87
2022-09-14T10:01:12.037Z,79.40
2022-09-14T10:03:41.996Z,80.11
2022-09-14T10:06:13.271Z,80.57
2022-09-14T10:08:44.306Z,80.86
2022-09-14T10:11:33.969Z,81.35
2022-09-14T10:14:03.232Z,81.53
2022-09-14T10:16:37.847Z,81.85
2022-09-14T10:19:15.201Z,81.56
2022-09-14T10:24:37.544Z,79.80
2022-09-14T10:27:42.017Z,80.06
2022-09-14T10:30:19.205Z,76.89
2022-09-14T10:32:53.698Z,77.67
2022-09-14T10:35:24.497Z,76.38
2022-09-14T10:38:09.676Z,75.03
2022-09-14T10:40:42.034Z,75.68
2022-09-14T10:43:16.685Z,74.61
2022-09-14T10:45:52.991Z,73.33
2022-09-14T10:49:02.849Z,72.89
2022-09-14T10:51:41.633Z,74.08
2022-09-14T10:54:20.467Z,71.79
2022-09-14T10:57:05.409Z,68.02
2022-09-14T10:59:43.837Z,69.36
2022-09-14T11:02:34.042Z,70.65
2022-09-14T11:05:13.038Z,68.31
2022-09-14T11:07:53.648Z,67.29
2022-09-14T11:10:30.189Z,67.63
2022-09-14T11:13:18.658Z,67.67
2022-09-14T11:15:59.857Z,68.97
2022-09-14T11:18:36.886Z,68.49
2022-09-14T11:21:16.477Z,67.02
2022-09-14T11:23:50.893Z,67.34
2022-09-14T11:26:27.080Z,66.83
2022-09-14T11:29:03.734Z,67.41
2022-09-14T11:31:36.903Z,67.03
2022-09-14T11:34:15.191Z,67.44
2022-09-14T11:36:47.168Z,66.17
2022-09-14T11:39:20.760Z,65.87
2022-09-14T11:41:53.310Z,65.65
2022-09-14T11:44:26.045Z,65.56
2022-09-14T11:47:00.919Z,65.33
2022-09-14T11:49:39.832Z,65.42
2022-09-14T11:52:15.531Z,66.21
2022-09-14T11:54:46.806Z,66.10
2022-09-14T11:57:19.112Z,67.26
2022-09-14T11:59:54.129Z,67.29
2022-09-14T12:03:13.194Z,68.11
2022-09-14T12:05:43.606Z,66.01
2022-09-14T12:08:41.756Z,65.61
2022-09-14T12:11:34.134Z,65.20
2022-09-14T12:14:15.815Z,64.42
2022-09-14T12:17:38.384Z,64.25
2022-09-14T12:20:40.391Z,65.89
2022-09-14T12:23:29.478Z,66.29
2022-09-14T12:26:09.951Z,67.47
2022-09-14T12:28:48.480Z,67.77
2022-09-14T12:31:36.272Z,69.15
2022-09-14T12:34:20.203Z,68.38
2022-09-14T12:37:16.453Z,68.32
2022-09-14T12:40:33.982Z,68.38
2022-09-14T12:43:48.529Z,68.44
2022-09-14T12:46:39.878Z,67.69
2022-09-14T12:49:35.804Z,65.20
2022-09-14T12:52:24.616Z,64.52
2022-09-14T12:55:22.581Z,64.67
2022-09-14T12:57:57.540Z,65.19
2022-09-14T13:00:28.441Z,65.37
2022-09-14T13:03:12.026Z,63.61
2022-09-14T13:05:44.983Z,64.68
2022-09-14T13:08:14.275Z,64.89
2022-09-14T13:10:47.860Z,65.87
2022-09-14T13:13:18.970Z,66.59
2022-09-14T13:15:53.488Z,66.91
2022-09-14T13:18:33.811Z,67.01
2022-09-14T13:21:05.264Z,67.51
2022-09-14T13:23:39.284Z,67.96
2022-09-14T13:26:11.812Z,68.78
2022-09-14T13:28:43.166Z,69.22
2022-09-14T13:31:14.638Z,69.29
2022-09-14T13:33:49.181Z,69.62
2022-09-14T13:36:23.105Z,70.03
2022-09-14T13:38:52.314Z,69.64
2022-09-14T13:41:23.305Z,70.10
2022-09-14T13:43:54.459Z,70.47
2022-09-14T13:46:23.355Z,68.41
2022-09-14T13:48:52.276Z,64.59
2022-09-14T13:51:26.722Z,60.59
2022-09-14T13:53:56.490Z,58.22
2022-09-14T13:56:31.393Z,56.75
2022-09-14T13:59:21.559Z,57.44
2022-09-14T14:01:56.473Z,58.40
2022-09-14T14:04:28.812Z,58.27
2022-09-14T14:07:06.600Z,60.94
2022-09-14T14:09:43.769Z,60.83
2022-09-14T14:12:13.866Z,62.94
2022-09-14T14:14:41.783Z,63.39
2022-09-14T14:17:37.008Z,62.18
2022-09-14T14:20:34.342Z,61.36
2022-09-14T14:23:21.266Z,59.56
2022-09-14T14:25:54.116Z,61.27
2022-09-14T14:28:26.001Z,62.78
2022-09-14T14:30:54.644Z,63.73
2022-09-14T14:33:23.717Z,64.39
2022-09-14T14:35:54.679Z,64.96
2022-09-14T14:38:25.024Z,65.89
2022-09-14T14:40:55.345Z,66.73
2022-09-14T14:43:26.055Z,63.65
2022-09-14T14:45:56.717Z,60.33
2022-09-14T14:48:24.970Z,59.17
2022-09-14T14:50:52.933Z,56.63
2022-09-14T14:53:20.801Z,55.86
2022-09-14T14:55:50.455Z,55.26
2022-09-14T14:58:20.002Z,54.29
2022-09-14T15:00:49.260Z,52.11
2022-09-14T15:03:19.123Z,51.56
2022-09-14T15:05:48.195Z,53.35
2022-09-14T15:08:17.730Z,56.90
2022-09-14T15:10:46.033Z,59.43
2022-09-14T15:13:15.461Z,61.18
2022-09-14T15:15:44.529Z,62.68
2022-09-14T15:18:12.427Z,63.65
2022-09-14T15:20:40.489Z,64.38
2022-09-14T15:23:10.055Z,65.63
2022-09-14T15:25:37.996Z,66.21
2022-09-14T15:28:05.900Z,66.17
2022-09-14T15:30:35.183Z,66.42
2022-09-14T15:33:03.141Z,66.68
2022-09-14T15:35:31.149Z,66.76
2022-09-14T15:37:58.986Z,67.84
2022-09-14T15:40:27.094Z,68.27
2022-09-14T15:42:55.145Z,68.74
2022-09-14T15:45:23.207Z,69.29
2022-09-14T15:47:52.609Z,69.77
2022-09-14T15:50:20.527Z,70.14
2022-09-14T15:52:48.357Z,70.62
2022-09-14T15:55:16.365Z,71.38
2022-09-14T15:57:44.245Z,72.33
2022-09-14T16:00:14.015Z,72.91
2022-09-14T16:02:42.146Z,73.10
2022-09-14T16:05:13.067Z,73.44
2022-09-14T16:07:41.077Z,73.72
2022-09-14T16:10:09.996Z,74.01
2022-09-14T16:12:37.892Z,74.25
2022-09-14T16:15:06.556Z,74.56
2022-09-14T16:17:34.481Z,74.71
2022-09-14T16:20:03.124Z,74.94
2022-09-14T16:22:32.772Z,75.17
2022-09-14T16:25:00.802Z,75.40
2022-09-14T16:27:30.483Z,75.44
2022-09-14T16:29:58.341Z,75.55
2022-09-14T16:32:26.529Z,75.58
2022-09-14T16:34:54.398Z,75.64
2022-09-14T16:37:22.265Z,75.39
2022-09-14T16:39:51.739Z,75.39
2022-09-14T16:42:20.324Z,75.30
2022-09-14T16:44:48.189Z,75.28
2022-09-14T16:47:16.313Z,75.34
2022-09-14T16:49:44.177Z,75.35
2022-09-14T16:52:12.114Z,75.34
2022-09-14T16:54:40.152Z,75.52
2022-09-14T16:57:09.937Z,75.46
2022-09-14T16:59:37.773Z,75.49
2022-09-14T17:02:05.919Z,75.59
2022-09-14T17:04:33.966Z,75.67
2022-09-14T17:07:01.747Z,75.76
2022-09-14T17:09:31.579Z,75.76
2022-09-14T17:12:00.418Z,76.00
2022-09-14T17:14:32.145Z,76.17
2022-09-14T17:17:00.703Z,76.28
2022-09-14T17:19:28.948Z,76.36
2022-09-14T17:21:56.949Z,76.52
2022-09-14T17:24:25.973Z,76.92
2022-09-14T17:26:54.062Z,76.94
2022-09-14T17:29:22.003Z,77.00
2022-09-14T17:31:51.672Z,77.20
2022-09-14T17:34:19.973Z,77.30
2022-09-14T17:36:47.941Z,77.55
2022-09-14T17:39:16.411Z,77.51
2022-09-14T17:41:44.474Z,77.50
2022-09-14T17:44:14.139Z,77.77
2022-09-14T17:46:51.160Z,77.95
2022-09-14T17:49:22.414Z,78.15
2022-09-14T17:51:50.934Z,78.14
2022-09-14T17:54:19.743Z,78.06
2022-09-14T17:56:47.776Z,78.29
2022-09-14T17:59:20.192Z,78.41
2022-09-14T18:01:49.020Z,78.57
2022-09-14T18:04:17.019Z,78.46
2022-09-14T18:06:47.695Z,78.84
2022-09-14T18:09:17.691Z,79.04
2022-09-14T18:11:46.200Z,79.22
2022-09-14T18:14:15.252Z,79.34
2022-09-14T18:16:44.775Z,79.19
2022-09-14T18:19:13.031Z,79.42
2022-09-14T18:21:41.475Z,79.74
2022-09-14T18:24:12.167Z,79.70
2022-09-14T18:26:39.978Z,79.90
2022-09-14T18:29:08.052Z,79.95
2022-09-14T18:31:36.171Z,80.08
2022-09-14T18:34:04.108Z,80.09
2022-09-14T18:36:32.054Z,80.26
2022-09-14T18:39:00.495Z,80.67
2022-09-14T18:41:31.397Z,80.59
2022-09-14T18:43:59.445Z,80.70
2022-09-14T18:46:29.159Z,80.89
2022-09-14T18:48:58.768Z,81.14
2022-09-14T18:51:28.263Z,81.35
2022-09-14T18:54:00.124Z,81.52
2022-09-14T18:56:33.051Z,81.92
2022-09-14T18:59:02.368Z,82.07
2022-09-14T19:01:30.272Z,82.52
2022-09-14T19:03:58.250Z,82.50
2022-09-14T19:06:26.643Z,82.95
2022-09-14T19:08:54.431Z,83.17
2022-09-14T19:11:23.789Z,83.73
2022-09-14T19:13:58.577Z,83.78
2022-09-14T19:16:26.661Z,83.94
2022-09-14T19:18:55.153Z,84.01
2022-09-14T19:21:25.687Z,84.21
2022-09-14T19:23:57.384Z,84.54
2022-09-14T19:26:25.278Z,84.62
2022-09-14T19:28:53.164Z,84.93
2022-09-14T19:31:24.492Z,85.14
2022-09-14T19:33:52.595Z,85.22
2022-09-14T19:36:23.837Z,85.51
2022-09-14T19:38:53.276Z,85.59
2022-09-14T19:41:21.989Z,85.76
2022-09-14T19:43:50.035Z,85.96
2022-09-14T19:46:19.417Z,85.93
2022-09-14T19:48:48.717Z,86.16
2022-09-14T19:51:18.788Z,86.28
2022-09-14T19:53:48.823Z,86.52
2022-09-14T19:56:18.901Z,86.80
2022-09-14T19:58:48.952Z,86.41
2022-09-14T20:01:17.931Z,86.62
2022-09-14T20:03:47.032Z,86.97
2022-09-14T20:06:21.346Z,86.96
2022-09-14T20:08:50.663Z,86.91
2022-09-14T20:11:20.336Z,86.97
2022-09-14T20:13:49.108Z,87.19
2022-09-14T20:16:19.474Z,87.17
2022-09-14T20:18:49.383Z,87.50
2022-09-14T20:21:20.729Z,87.49
2022-09-14T20:24:11.646Z,87.68
2022-09-14T20:26:36.881Z,87.50
2022-09-14T20:29:05.077Z,87.66
2022-09-14T20:31:32.999Z,87.76
2022-09-14T20:34:02.161Z,87.83
2022-09-14T20:36:32.498Z,88.00
2022-09-14T20:39:00.985Z,88.07
2022-09-14T20:41:31.217Z,88.08
2022-09-14T20:43:59.228Z,88.14
2022-09-14T20:46:31.005Z,88.20
2022-09-14T20:48:59.528Z,88.33
2022-09-14T20:51:28.002Z,88.32
2022-09-14T20:53:57.331Z,88.28
2022-09-14T20:56:27.145Z,88.69
2022-09-14T20:58:56.243Z,88.59
2022-09-14T21:01:26.918Z,88.89
2022-09-14T21:03:55.617Z,88.52
2022-09-14T21:06:24.730Z,88.62
2022-09-14T21:08:53.476Z,88.99
2022-09-14T21:11:24.574Z,89.45
2022-09-14T21:13:54.246Z,89.62
2022-09-14T21:16:24.763Z,89.66
2022-09-14T21:18:54.680Z,89.30
2022-09-14T21:21:23.019Z,89.34
2022-09-14T21:23:51.451Z,89.73
2022-09-14T21:26:20.461Z,89.83
2022-09-14T21:28:50.148Z,89.85
2022-09-14T21:31:19.959Z,89.66
2022-09-14T21:33:49.594Z,89.91
2022-09-14T21:36:19.732Z,89.89
2022-09-14T21:38:50.420Z,90.01
2022-09-14T21:41:19.014Z,89.82
2022-09-14T21:43:47.766Z,90.32
2022-09-14T21:46:17.804Z,90.73
2022-09-14T21:48:46.367Z,90.62
2022-09-14T21:51:18.557Z,90.77
2022-09-14T21:53:47.682Z,90.68
2022-09-14T21:56:16.336Z,90.87
2022-09-14T21:58:44.628Z,90.92
2022-09-14T22:01:12.780Z,90.86
2022-09-14T22:03:42.036Z,90.55
2022-09-14T22:06:13.847Z,90.98
2022-09-14T22:08:41.918Z,91.13
2022-09-14T22:11:11.991Z,91.25
2022-09-14T22:13:42.578Z,91.05
2022-09-14T22:16:11.836Z,91.23
2022-09-14T22:18:49.045Z,91.54
2022-09-14T22:21:17.947Z,91.62
2022-09-14T22:23:50.604Z,91.71
2022-09-14T22:26:20.127Z,91.58
2022-09-14T22:28:49.190Z,91.72
2022-09-14T22:31:18.339Z,91.59
2022-09-14T22:33:48.105Z,91.50
2022-09-14T22:36:16.300Z,91.62
2022-09-14T22:38:45.644Z,91.48
2022-09-14T22:41:17.629Z,91.72
2022-09-14T22:43:46.925Z,91.96
2022-09-14T22:46:15.607Z,91.80
2022-09-14T22:48:43.965Z,91.59
2022-09-14T22:51:15.910Z,91.97
2022-09-14T22:53:44.178Z,91.94
2022-09-14T22:56:23.604Z,92.35
2022-09-14T22:58:51.699Z,92.02
2022-09-14T23:01:22.505Z,92.14
2022-09-14T23:03:51.257Z,92.75
2022-09-14T23:06:20.886Z,92.76
2022-09-14T23:08:48.813Z,93.04
2022-09-14T23:11:16.662Z,93.43
2022-09-14T23:13:44.564Z,93.73
2022-09-14T23:16:13.983Z,93.38
2022-09-14T23:18:42.152Z,93.62
2022-09-14T23:21:10.966Z,93.87
2022-09-14T23:23:40.572Z,94.10
2022-09-14T23:26:10.302Z,94.08
2022-09-14T23:28:39.104Z,94.29
2022-09-14T23:31:07.254Z,94.57
2022-09-14T23:33:35.679Z,94.49
2022-09-14T23:36:03.974Z,94.43
2022-09-14T23:38:31.862Z,94.63
2022-09-14T23:41:01.865Z,94.59
2022-09-14T23:43:29.829Z,94.69
2022-09-14T23:45:57.753Z,94.78
2022-09-14T23:48:25.747Z,94.92
2022-09-14T23:51:00.564Z,95.29
2022-09-14T23:53:29.070Z,94.88
2022-09-14T23:55:57.459Z,95.27
2022-09-14T23:58:26.985Z,95.08
